createdAt,value
2019-02-05T01:05:13.251Z,5.60
2019-02-05T01:07:54.302Z,4.30
2019-02-05T01:10:35.294Z,4.20
2019-02-05T01:13:16.393Z,4.10
2019-02-05T01:15:57.812Z,4.00
2019-02-05T01:18:39.110Z,3.90
2019-02-05T01:21:20.633Z,3.80
2019-02-05T01:24:02.135Z,3.80
2019-02-05T01:26:43.203Z,3.70
2019-02-05T01:29:24.056Z,3.70
2019-02-05T01:32:05.353Z,3.70
2019-02-05T01:34:46.895Z,3.70
2019-02-05T01:37:28.209Z,3.70
2019-02-05T01:40:09.878Z,3.70
2019-02-05T01:42:50.661Z,3.70
2019-02-05T01:45:32.158Z,3.70
2019-02-05T01:48:13.271Z,3.70
2019-02-05T01:50:54.644Z,3.60
2019-02-05T01:53:36.207Z,3.60
2019-02-05T01:56:17.584Z,3.60
2019-02-05T01:58:59.265Z,3.60
2019-02-05T02:01:39.933Z,3.50
2019-02-05T02:04:21.499Z,3.50
2019-02-05T02:07:03.251Z,3.40
2019-02-05T02:09:44.604Z,3.40
2019-02-05T02:12:26.195Z,3.40
2019-02-05T02:15:07.353Z,3.30
2019-02-05T02:17:48.101Z,3.30
2019-02-05T02:20:29.278Z,3.30
2019-02-05T02:23:10.318Z,3.30
2019-02-05T02:25:51.638Z,3.20
2019-02-05T02:28:31.187Z,3.20
2019-02-05T02:31:12.248Z,3.20
2019-02-05T02:33:53.201Z,3.20
2019-02-05T02:36:34.264Z,3.20
2019-02-05T02:39:15.496Z,3.10
2019-02-05T02:41:55.070Z,3.10
2019-02-05T02:47:44.173Z,3.10
2019-02-05T03:09:07.134Z,3.00
2019-02-05T03:11:48.339Z,3.00
2019-02-05T03:14:29.883Z,2.90
2019-02-05T03:17:11.425Z,2.90
2019-02-05T03:19:52.593Z,2.90
2019-02-05T03:22:33.940Z,2.90
2019-02-05T03:25:15.381Z,2.90
2019-02-05T03:27:56.663Z,2.90
2019-02-05T03:30:38.253Z,2.90
2019-02-05T03:33:19.648Z,2.90
2019-02-05T03:36:00.283Z,2.90
2019-02-05T03:38:41.709Z,2.80
2019-02-05T03:41:23.188Z,2.80
2019-02-05T03:44:05.021Z,2.80
2019-02-05T03:46:46.674Z,2.80
2019-02-05T03:49:27.875Z,2.80
2019-02-05T03:52:09.444Z,2.70
2019-02-05T03:54:51.004Z,2.70
2019-02-05T03:57:32.361Z,2.70
2019-02-05T04:00:13.260Z,2.70
2019-02-05T04:02:54.460Z,2.80
2019-02-05T04:05:35.619Z,2.70
2019-02-05T04:08:16.978Z,2.70
2019-02-05T04:10:58.442Z,2.80
2019-02-05T04:13:39.184Z,2.70
2019-02-05T04:16:19.877Z,2.70
2019-02-05T04:19:01.027Z,2.70
2019-02-05T04:22:00.760Z,2.70
2019-02-05T04:25:08.331Z,2.70
2019-02-05T04:28:11.996Z,2.70
2019-02-05T04:31:19.727Z,2.60
2019-02-05T04:34:01.021Z,2.70
2019-02-05T04:36:42.715Z,2.70
2019-02-05T04:39:23.932Z,2.70
2019-02-05T04:42:04.976Z,2.70
2019-02-05T04:44:46.180Z,2.70
2019-02-05T04:47:27.663Z,2.70
2019-02-05T04:50:09.035Z,2.60
2019-02-05T04:52:50.608Z,2.60
2019-02-05T04:55:31.956Z,2.60
2019-02-05T04:58:12.933Z,2.60
2019-02-05T05:00:54.099Z,2.60
2019-02-05T05:03:36.936Z,2.60
2019-02-05T05:06:44.691Z,2.50
2019-02-05T05:09:26.161Z,2.50
2019-02-05T05:12:07.037Z,2.50
2019-02-05T05:14:48.405Z,2.50
2019-02-05T05:17:29.602Z,2.40
2019-02-05T05:20:10.858Z,2.50
2019-02-05T05:22:52.341Z,2.40
2019-02-05T05:25:33.092Z,2.40
2019-02-05T05:28:14.626Z,2.40
2019-02-05T05:30:56.260Z,2.40
2019-02-05T05:33:36.861Z,2.40
2019-02-05T05:36:18.331Z,2.50
2019-02-05T05:38:59.605Z,2.40
2019-02-05T05:41:40.871Z,2.40
2019-02-05T05:44:21.912Z,2.40
2019-02-05T05:47:03.384Z,2.40
2019-02-05T05:49:44.512Z,2.40
2019-02-05T05:52:26.013Z,2.40
2019-02-05T05:55:07.293Z,2.40
2019-02-05T05:57:48.614Z,2.40
2019-02-05T06:00:30.085Z,2.40
2019-02-05T06:03:11.098Z,2.40
2019-02-05T06:05:52.687Z,2.40
2019-02-05T06:08:33.606Z,2.40
2019-02-05T06:11:15.034Z,2.40
2019-02-05T06:13:56.029Z,2.30
2019-02-05T06:16:37.270Z,2.30
2019-02-05T06:19:18.006Z,2.20
2019-02-05T06:21:58.099Z,2.20
2019-02-05T06:24:39.433Z,2.10
2019-02-05T06:27:20.885Z,2.10
2019-02-05T06:30:01.873Z,2.10
2019-02-05T06:32:43.212Z,2.00
2019-02-05T06:35:24.873Z,2.00
2019-02-05T06:38:06.073Z,1.90
2019-02-05T06:40:47.218Z,1.90
2019-02-05T06:43:28.663Z,1.90
2019-02-05T06:46:10.571Z,1.80
2019-02-05T06:48:51.701Z,1.80
2019-02-05T06:51:32.900Z,1.80
2019-02-05T06:54:14.096Z,1.80
2019-02-05T06:56:55.647Z,1.80
2019-02-05T06:59:36.299Z,1.80
2019-02-05T07:02:17.915Z,1.80
2019-02-05T07:04:59.286Z,1.80
2019-02-05T07:07:40.833Z,1.80
2019-02-05T07:10:23.267Z,1.80
2019-02-05T07:13:04.866Z,1.80
2019-02-05T07:15:46.263Z,1.80
2019-02-05T07:18:27.764Z,1.80
2019-02-05T07:21:08.983Z,1.80
2019-02-05T07:23:49.245Z,1.70
2019-02-05T07:29:37.883Z,1.70
2019-02-05T07:32:19.685Z,1.80
2019-02-05T07:35:00.953Z,1.80
2019-02-05T07:37:42.456Z,1.80
2019-02-05T07:40:23.971Z,1.70
2019-02-05T07:43:04.690Z,1.70
2019-02-05T07:45:46.080Z,1.70
2019-02-05T07:48:30.348Z,1.80
2019-02-05T07:51:10.712Z,1.80
2019-02-05T07:53:52.109Z,1.80
2019-02-05T07:56:33.315Z,1.90
2019-02-05T07:59:14.981Z,1.90
2019-02-05T08:01:56.259Z,1.90
2019-02-05T08:04:37.460Z,2.00
2019-02-05T08:07:19.018Z,2.10
2019-02-05T08:10:00.700Z,2.20
2019-02-05T08:12:42.186Z,2.30
2019-02-05T08:15:23.953Z,2.30
2019-02-05T08:18:05.532Z,2.40
2019-02-05T08:20:47.003Z,2.40
2019-02-05T08:23:28.377Z,2.50
2019-02-05T08:26:09.638Z,2.50
2019-02-05T08:28:50.806Z,2.60
2019-02-05T08:31:32.093Z,2.70
2019-02-05T08:34:12.827Z,2.70
2019-02-05T08:36:53.557Z,2.80
2019-02-05T08:39:35.126Z,2.90
2019-02-05T08:42:16.420Z,3.00
2019-02-05T08:44:57.770Z,3.10
2019-02-05T08:47:39.118Z,3.10
2019-02-05T08:50:20.458Z,3.20
2019-02-05T08:53:01.893Z,3.30
2019-02-05T08:55:42.224Z,3.30
2019-02-05T09:01:31.287Z,3.50
2019-02-05T09:04:12.632Z,3.50
2019-02-05T09:09:53.008Z,3.60
2019-02-05T09:12:34.217Z,3.80
2019-02-05T09:15:13.893Z,3.90
2019-02-05T09:21:02.908Z,4.00
2019-02-05T09:23:43.714Z,4.10
2019-02-05T09:26:25.342Z,4.20
2019-02-05T09:29:06.437Z,4.30
2019-02-05T09:31:47.805Z,4.40
2019-02-05T09:34:27.379Z,4.50
2019-02-05T09:37:08.216Z,4.60
2019-02-05T09:39:49.875Z,4.70
2019-02-05T09:42:31.192Z,4.80
2019-02-05T09:45:12.408Z,4.80
2019-02-05T09:47:53.853Z,4.90
2019-02-05T09:50:44.207Z,5.00
2019-02-05T09:53:17.680Z,5.10
2019-02-05T09:55:58.452Z,5.20
2019-02-05T09:58:39.857Z,5.20
2019-02-05T10:01:21.328Z,5.30
2019-02-05T10:04:02.560Z,5.30
2019-02-05T10:06:42.514Z,5.40
2019-02-05T10:09:23.494Z,5.50
2019-02-05T10:12:04.996Z,5.60
2019-02-05T10:14:45.997Z,5.60
2019-02-05T10:17:27.255Z,5.70
2019-02-05T10:20:08.732Z,5.80
2019-02-05T10:22:50.351Z,5.90
2019-02-05T10:25:31.555Z,5.90
2019-02-05T10:28:12.938Z,6.00
2019-02-05T10:30:54.098Z,6.00
2019-02-05T10:33:33.754Z,6.10
2019-02-05T10:36:15.125Z,6.20
2019-02-05T10:38:56.794Z,6.20
2019-02-05T10:41:38.378Z,6.30
2019-02-05T10:44:19.840Z,6.30
2019-02-05T10:47:01.190Z,6.40
2019-02-05T10:49:42.791Z,6.40
2019-02-05T10:52:26.709Z,6.50
2019-02-05T10:55:07.769Z,6.50
2019-02-05T10:57:48.806Z,6.60
2019-02-05T11:00:29.532Z,6.60
2019-02-05T11:03:10.924Z,6.70
2019-02-05T11:05:52.245Z,6.70
2019-02-05T11:08:33.419Z,6.80
2019-02-05T11:11:14.852Z,6.90
2019-02-05T11:13:55.546Z,6.90
2019-02-05T11:16:36.664Z,7.00
2019-02-05T11:19:18.183Z,7.10
2019-02-05T11:21:59.643Z,7.20
2019-02-05T11:24:41.219Z,7.30
2019-02-05T11:27:22.760Z,7.30
2019-02-05T11:30:04.202Z,7.40
2019-02-05T11:32:45.515Z,7.40
2019-02-05T11:35:27.153Z,7.50
2019-02-05T11:38:08.765Z,7.60
2019-02-05T11:40:49.754Z,7.70
2019-02-05T11:43:31.064Z,7.80
2019-02-05T11:46:12.563Z,7.80
2019-02-05T11:48:54.102Z,7.80
2019-02-05T11:51:35.414Z,7.90
2019-02-05T11:54:16.696Z,7.90
2019-02-05T11:56:57.964Z,7.90
2019-02-05T11:59:39.472Z,7.90
2019-02-05T12:02:20.508Z,8.00
2019-02-05T12:05:02.043Z,8.00
2019-02-05T12:07:43.243Z,8.10
2019-02-05T12:10:24.739Z,8.10
2019-02-05T12:13:05.020Z,8.20
2019-02-05T12:15:53.552Z,8.20
2019-02-05T12:18:36.459Z,8.10
2019-02-05T12:21:17.718Z,8.10
2019-02-05T12:23:58.715Z,8.20
2019-02-05T12:26:40.263Z,8.30
2019-02-05T12:29:21.675Z,8.40
2019-02-05T12:32:03.086Z,8.40
2019-02-05T12:34:44.138Z,8.50
2019-02-05T12:37:25.433Z,8.50
2019-02-05T12:40:06.998Z,8.60
2019-02-05T12:42:48.574Z,8.70
2019-02-05T12:45:30.187Z,8.70
2019-02-05T12:48:11.648Z,8.80
2019-02-05T12:50:52.941Z,8.80
2019-02-05T12:53:34.491Z,8.80
2019-02-05T12:56:15.430Z,8.80
2019-02-05T12:58:56.583Z,8.90
2019-02-05T13:01:37.816Z,9.00
2019-02-05T13:04:19.383Z,9.00
2019-02-05T13:07:00.398Z,9.00
2019-02-05T13:09:41.709Z,9.00
2019-02-05T13:12:23.268Z,9.10
2019-02-05T13:15:04.960Z,9.10
2019-02-05T13:17:46.078Z,9.20
2019-02-05T13:20:26.747Z,9.30
2019-02-05T13:23:07.872Z,9.30
2019-02-05T13:25:49.578Z,9.40
2019-02-05T13:28:30.905Z,9.50
2019-02-05T13:31:12.391Z,9.60
2019-02-05T13:33:54.014Z,9.70
2019-02-05T13:36:34.864Z,9.70
2019-02-05T13:39:14.443Z,9.70
2019-02-05T13:42:03.033Z,9.80
2019-02-05T13:44:44.213Z,9.90
2019-02-05T13:47:25.956Z,9.90
2019-02-05T13:50:07.184Z,9.90
2019-02-05T13:52:48.136Z,9.90
2019-02-05T13:55:28.817Z,9.90
2019-02-05T13:58:08.497Z,9.90
2019-02-05T14:00:49.022Z,9.90
2019-02-05T14:03:37.576Z,9.90
2019-02-05T14:06:18.335Z,9.90
2019-02-05T14:09:10.015Z,9.80
2019-02-05T14:11:42.090Z,9.90
2019-02-05T14:14:23.229Z,9.90
2019-02-05T14:17:03.981Z,9.90
2019-02-05T14:19:45.586Z,9.80
2019-02-05T14:22:27.023Z,9.80
2019-02-05T14:25:08.464Z,9.80
2019-02-05T14:27:49.999Z,9.90
2019-02-05T14:30:31.376Z,9.90
2019-02-05T14:33:12.811Z,9.80
2019-02-05T14:35:54.466Z,9.80
2019-02-05T14:38:35.239Z,9.80
2019-02-05T14:41:16.907Z,9.80
2019-02-05T14:43:57.697Z,9.80
2019-02-05T14:46:38.999Z,9.80
2019-02-05T14:49:20.542Z,9.80
2019-02-05T14:52:01.270Z,9.80
2019-02-05T14:54:41.964Z,9.70
2019-02-05T14:57:23.357Z,9.70
2019-02-05T15:00:04.046Z,9.70
2019-02-05T15:02:45.270Z,9.70
2019-02-05T15:05:26.284Z,9.70
2019-02-05T15:08:07.871Z,9.60
2019-02-05T15:10:49.447Z,9.60
2019-02-05T15:13:31.035Z,9.60
2019-02-05T15:16:11.935Z,9.60
2019-02-05T15:18:53.138Z,9.60
2019-02-05T15:21:34.736Z,9.50
2019-02-05T15:24:15.819Z,9.50
2019-02-05T15:26:57.344Z,9.50
2019-02-05T15:29:37.298Z,9.50
2019-02-05T15:32:37.273Z,9.50
2019-02-05T15:35:19.773Z,9.40
2019-02-05T15:38:00.960Z,9.30
2019-02-05T15:40:42.253Z,9.30
2019-02-05T15:43:21.859Z,9.20
2019-02-05T15:46:10.492Z,9.20
2019-02-05T15:48:51.386Z,9.10
2019-02-05T15:51:32.050Z,9.10
2019-02-05T15:54:15.024Z,9.00
2019-02-05T15:56:59.213Z,8.90
2019-02-05T15:59:40.774Z,8.80
2019-02-05T16:02:20.286Z,8.70
2019-02-05T16:05:01.420Z,8.60
2019-02-05T16:07:42.856Z,8.50
2019-02-05T16:10:24.246Z,8.40
2019-02-05T16:13:05.632Z,8.30
2019-02-05T16:15:46.850Z,8.30
2019-02-05T16:18:28.186Z,8.20
2019-02-05T16:21:09.883Z,8.10
2019-02-05T16:23:51.241Z,8.00
2019-02-05T16:26:32.525Z,7.90
2019-02-05T16:29:14.008Z,7.80
2019-02-05T16:31:55.076Z,7.80
2019-02-05T16:34:36.690Z,7.80
2019-02-05T16:37:17.888Z,7.70
2019-02-05T16:39:59.139Z,7.60
2019-02-05T16:42:38.910Z,7.50
2019-02-05T16:45:27.583Z,7.50
2019-02-05T16:48:08.394Z,7.40
2019-02-05T16:50:49.606Z,7.40
2019-02-05T16:53:30.918Z,7.30
2019-02-05T16:56:12.107Z,7.30
2019-02-05T16:58:53.527Z,7.20
2019-02-05T17:01:34.390Z,7.20
2019-02-05T17:04:15.740Z,7.20
2019-02-05T17:06:57.091Z,7.20
2019-02-05T17:09:38.116Z,7.10
2019-02-05T17:12:19.359Z,7.10
2019-02-05T17:15:00.591Z,7.10
2019-02-05T17:17:41.876Z,7.10
2019-02-05T17:20:23.057Z,7.10
2019-02-05T17:23:04.342Z,7.10
2019-02-05T17:25:45.799Z,7.20
2019-02-05T17:28:26.481Z,7.20
2019-02-05T17:31:06.108Z,7.20
2019-02-05T17:36:54.599Z,7.30
2019-02-05T17:39:35.745Z,7.30
2019-02-05T17:42:17.334Z,7.30
2019-02-05T17:44:58.283Z,7.30
2019-02-05T17:47:39.478Z,7.30
2019-02-05T17:50:20.913Z,7.30
2019-02-05T17:53:02.237Z,7.30
2019-02-05T17:55:43.018Z,7.30
2019-02-05T17:58:24.475Z,7.30
2019-02-05T18:04:13.989Z,7.30
2019-02-05T18:07:02.679Z,7.30
2019-02-05T18:09:43.761Z,7.30
2019-02-05T18:12:25.365Z,7.30
2019-02-05T18:15:06.880Z,7.30
2019-02-05T18:17:48.260Z,7.30
2019-02-05T18:20:29.753Z,7.30
2019-02-05T18:23:10.944Z,7.30
2019-02-05T18:25:52.448Z,7.30
2019-02-05T18:28:33.913Z,7.30
2019-02-05T18:31:15.200Z,7.30
2019-02-05T18:33:56.697Z,7.20
2019-02-05T18:36:38.241Z,7.20
2019-02-05T18:39:19.863Z,7.20
2019-02-05T18:41:59.390Z,7.20
2019-02-05T18:44:48.312Z,7.20
2019-02-05T18:47:30.801Z,7.20
2019-02-05T18:50:12.476Z,7.20
2019-02-05T18:52:53.813Z,7.20
2019-02-05T18:55:33.616Z,7.20
2019-02-05T18:58:14.804Z,7.20
2019-02-05T19:00:56.042Z,7.10
2019-02-05T19:03:37.563Z,7.10
2019-02-05T19:06:19.121Z,7.10
2019-02-05T19:09:00.470Z,7.10
2019-02-05T19:11:41.893Z,7.00
2019-02-05T19:14:23.399Z,7.00
2019-02-05T19:17:03.825Z,7.00
2019-02-05T19:19:44.936Z,6.90
2019-02-05T19:22:26.333Z,6.90
2019-02-05T19:28:14.475Z,6.80
2019-02-05T19:37:06.469Z,6.80
2019-02-05T19:39:48.099Z,6.70
2019-02-05T19:42:29.177Z,6.70
2019-02-05T19:45:29.525Z,6.70
2019-02-05T19:51:05.979Z,6.70
2019-02-05T19:53:47.436Z,6.70
2019-02-05T19:56:37.954Z,6.70
2019-02-05T19:59:11.112Z,6.60
2019-02-05T20:01:52.244Z,6.60
2019-02-05T20:04:33.858Z,6.60
2019-02-05T20:07:15.532Z,6.60
2019-02-05T20:09:57.054Z,6.50
2019-02-05T20:12:38.746Z,6.50
2019-02-05T20:15:20.046Z,6.50
2019-02-05T20:18:01.001Z,6.50
2019-02-05T20:20:42.467Z,6.50
2019-02-05T20:23:23.716Z,6.40
2019-02-05T20:26:05.210Z,6.40
2019-02-05T20:28:46.378Z,6.30
2019-02-05T20:31:27.537Z,6.30
2019-02-05T20:34:09.135Z,6.20
2019-02-05T20:36:53.723Z,6.10
2019-02-05T20:39:35.185Z,6.10
2019-02-05T20:42:16.258Z,6.00
2019-02-05T20:44:57.659Z,5.90
2019-02-05T20:47:38.770Z,5.90
2019-02-05T20:50:20.039Z,5.80
2019-02-05T20:53:01.127Z,5.70
2019-02-05T20:55:42.934Z,5.70
2019-02-05T20:58:24.417Z,5.70
2019-02-05T21:01:05.623Z,5.60
2019-02-05T21:03:47.221Z,5.60
2019-02-05T21:06:28.708Z,5.60
2019-02-05T21:09:10.021Z,5.50
2019-02-05T21:11:50.956Z,5.50
2019-02-05T21:14:31.878Z,5.50
2019-02-05T21:17:13.332Z,5.50
2019-02-05T21:19:54.849Z,5.60
2019-02-05T21:22:35.782Z,5.60
2019-02-05T21:25:17.260Z,5.60
2019-02-05T21:27:58.636Z,5.60
2019-02-05T21:30:39.532Z,5.50
2019-02-05T21:33:19.696Z,5.50
2019-02-05T21:39:08.098Z,5.50
2019-02-05T21:41:48.993Z,5.50
2019-02-05T21:44:30.040Z,5.40
2019-02-05T21:47:11.518Z,5.30
2019-02-05T21:49:52.601Z,5.30
2019-02-05T21:52:34.057Z,5.30
2019-02-05T21:55:15.580Z,5.30
2019-02-05T21:57:56.316Z,5.20
2019-02-05T22:00:37.480Z,5.20
2019-02-05T22:03:19.216Z,5.10
2019-02-05T22:06:00.221Z,5.10
2019-02-05T22:08:41.656Z,5.10
2019-02-05T22:11:21.331Z,5.10
2019-02-05T22:17:18.321Z,5.00
2019-02-05T22:19:57.114Z,5.00
2019-02-05T22:22:37.903Z,5.00
2019-02-05T22:25:19.210Z,5.00
2019-02-05T22:28:00.933Z,5.00
2019-02-05T22:30:42.417Z,4.90
2019-02-05T22:33:23.535Z,4.90
2019-02-05T22:36:05.078Z,4.90
2019-02-05T22:38:46.404Z,4.80
2019-02-05T22:41:27.801Z,4.80
2019-02-05T22:44:09.371Z,4.70
2019-02-05T22:46:50.931Z,4.70
2019-02-05T22:49:32.393Z,4.70
2019-02-05T22:52:13.976Z,4.60
2019-02-05T22:54:55.160Z,4.60
2019-02-05T22:57:36.717Z,4.60
2019-02-05T23:00:18.223Z,4.60
2019-02-05T23:02:59.486Z,4.50
2019-02-05T23:05:40.106Z,4.40
2019-02-05T23:08:21.827Z,4.30
2019-02-05T23:22:57.245Z,4.30
2019-02-05T23:25:38.732Z,4.00
2019-02-05T23:28:19.658Z,3.90
2019-02-05T23:31:01.007Z,3.90
2019-02-05T23:33:44.602Z,3.80
2019-02-05T23:36:24.458Z,3.80
2019-02-05T23:39:05.644Z,3.70
2019-02-05T23:41:47.026Z,3.70
2019-02-05T23:44:28.512Z,3.70
2019-02-05T23:47:09.993Z,3.60
2019-02-05T23:49:51.085Z,3.60
2019-02-05T23:52:32.483Z,3.60
2019-02-05T23:55:14.149Z,3.60
2019-02-05T23:57:55.531Z,3.60
